Impacts TAF Board
For situational awareness. Not to be used for flight planning purposes.
IDs:

KMCB - McComb/Lewis Fld, MS, US

Issued at 2339 UTC 05 Dec 2020
Updated at 0216 UTC 06 Dec 2020
Potential Impact None Slight Moderate High
Time0153Z 06/03Z 06/04Z 06/05Z 06/06Z 06/07Z 06/08Z 06/09Z 06/10Z 06/11Z 06/12Z 06/13Z 06/14Z 06/15Z>>
Type OBS PRVL PRVL PRVL PRVL PRVL PRVL PRVL PRVL PRVL PRVL PRVL PRVL PRVL
VIS 10 >6 >6 >6 >6 >6 >6 >6 >6 >6 >6 >6 >6 >6
CIG -- 250 250 250 250 250 250 250 250 250 250 250 250 100
Cover CLR OVC OVC OVC OVC OVC OVC OVC OVC OVC OVC OVC OVC OVC
FltCat VFR VFR VFR VFR VFR VFR VFR VFR VFR VFR VFR VFR VFR VFR
WX -- -- -- -- -- -- -- -- -- -- -- -- -- VCSH
WDir VRB VRB VRB VRB VRB VRB VRB VRB VRB VRB VRB VRB VRB VRB
WSpd 0 4 4 4 4 4 4 4 4 4 4 4 4 4
WGst -- -- -- -- -- -- -- -- -- -- -- -- -- --
Raw TAF
KMCB 052339Z 0600/0624 VRB04KT P6SM OVC250
  FM061500 VRB04KT P6SM VCSH SCT030 OVC100
  FM062100 VRB04KT P6SM OVC035


Raw METAR
KMCB 060153Z AUTO 00000KT 10SM CLR 09/07 A3017 RMK AO2 SLP215 T00890067
KMCB 060053Z AUTO 00000KT 10SM CLR 10/07 A3018 RMK AO2 SLP218 T01000067
KMCB 052353Z AUTO 00000KT 10SM CLR 10/07 A3016 RMK AO2 SLP215 T01000072 10144 20094 51015

METAR Board
Radar Display
Forecast Discussion
For situational awareness. Not to be used for flight planning purposes.